Flight Track Log - Related Links

Times and Time Zones

All times are in EDT time to prevent confusion due to time zone crossing. See the SWA662 flight status page for this flight to view local times or setup timezone preferences in your user account.

Time Position Orientation Groundspeed Altitude Reporting Facility
EDT Latitude Longitude Course Direction KTS MPH feet Rate Location/Type
Mon 11:38:46 PM 33.9458 -118.4433 58° Northeast 172 198 1,200  Level Los Center
Mon 11:40:00 PM 33.9386 -118.5219 264° West 219 252 3,400 2,735 Climbing Los Center
Mon 11:41:02 PM 33.8817 -118.5706 215° Southwest 244 281 7,400 3,024 Climbing Los Center
Mon 11:42:03 PM 33.8778 -118.4881 93° East 283 326 9,600 1,805 Climbing Los Center
Mon 11:43:05 PM 33.9439 -118.4158 42° Northeast 327 376 11,100 1,805 Climbing Los Center
Mon 11:44:00 PM 34.2765 -117.7664 58° Northeast  Level Estimated
Mon 11:44:06 PM 34.0050 -118.3064 56° Northeast 386 444 13,300  Level Los Center
Mon 11:45:08 PM 34.0700 -118.1919 56° Northeast 404 465 15,300 1,935 Climbing Los Center
Mon 11:46:10 PM 34.1394 -118.0706 55° Northeast 426 490 17,300 1,951 Climbing Los Center
Mon 11:47:11 PM 34.2100 -117.9442 56° Northeast 445 512 19,300 1,951 Climbing Los Center
Mon 11:48:13 PM 34.2831 -117.8128 56° Northeast 461 531 21,300 1,839 Climbing Los Center
Mon 11:49:15 PM 34.3592 -117.6769 56° Northeast 478 550 23,100 1,707 Climbing Los Center
Mon 11:50:16 PM 34.4397 -117.5308 56° Northeast 493 567 24,800 1,561 Climbing Los Center
Mon 11:51:18 PM 34.5183 -117.3886 56° Northeast 510 587 26,300 1,548 Climbing Los Center
Mon 11:52:20 PM 34.6136 -117.2144 56° Northeast 519 597 28,000 1,463 Climbing Los Center
Mon 11:53:21 PM 34.6947 -117.0669 56° Northeast 528 608 29,300 1,463 Climbing Los Center
Mon 11:54:23 PM 34.7764 -116.9164 57° Northeast 536 617 31,000 1,512 Climbing Los Center
Mon 11:55:24 PM 34.8567 -116.7681 57° Northeast 529 609 32,400 1,463 Climbing Los Center
Mon 11:56:26 PM 34.9378 -116.6189 56° Northeast 529 609 34,000 1,403 Climbing Los Center
Mon 11:57:28 PM 35.0319 -116.4861 49° Northeast 521 600 35,300 1,024 Climbing Los Center
Mon 11:58:29 PM 35.1111 -116.3886 45° Northeast 512 589 36,100 829 Climbing Los Center
Mon 11:59:31 PM 35.2531 -116.2133 45° Northeast 518 596 37,000 439 Climbing Los Center
Tue 12:00:32 AM 35.3514 -116.0864 46° Northeast 516 594 37,000  Level Los Center
Tue 12:01:34 AM 35.4519 -115.9603 46° Northeast 519 597 37,000  Level Los Center
Tue 12:02:35 AM 35.5331 -115.8156 55° Northeast 524 603 37,000  Level Los Center
Tue 12:03:36 AM 35.5983 -115.6519 64° Northeast 531 611 37,000  Level Los Center
Tue 12:04:38 AM 35.6503 -115.5225 64° Northeast 530 610 37,000  Level Los Center
Tue 12:05:39 AM 35.7406 -115.2961 64° Northeast 529 609 37,000  Level Los Center
Tue 12:06:41 AM 35.8017 -115.1392 64° Northeast 516 594 37,000  Level Los Center
Tue 12:07:42 AM 35.8644 -114.9781 64° Northeast 523 602 37,000  Level Los Center
Tue 12:08:43 AM 35.9158 -114.8478 64° Northeast 528 608 37,000  Level Los Center
Tue 12:09:45 AM 35.9919 -114.6544 64° Northeast 526 605 37,000  Level Los Center
Tue 12:10:46 AM 36.0550 -114.4931 64° Northeast 525 604 37,000  Level Los Center
Tue 12:11:48 AM 36.1181 -114.3300 64° Northeast 527 606 37,000  Level Los Center
Tue 12:12:49 AM 36.1936 -114.1328 65° Northeast 529 609 37,000  Level Los Center
Tue 12:13:51 AM 36.2561 -113.9689 65° Northeast 528 608 37,000  Level Los Center
Tue 12:14:52 AM 36.3178 -113.8064 65° Northeast 525 604 37,000  Level Los Center
Tue 12:15:53 AM 36.3792 -113.6439 65° Northeast 523 602 37,000  Level Los Center
Tue 12:16:55 AM 36.4414 -113.4822 64° Northeast 521 600 37,000  Level Los Center
Tue 12:17:56 AM 36.5033 -113.3122 66° East 520 598 37,000  Level Los Center
Tue 12:18:58 AM 36.5642 -113.1511 65° Northeast 518 596 37,000  Level Los Center
Tue 12:19:59 AM 36.6239 -112.9894 65° Northeast 518 596 37,000  Level Los Center
Tue 12:21:00 AM 36.6833 -112.8281 65° Northeast 516 594 37,000  Level Los Center
Tue 12:22:02 AM 36.7556 -112.6342 65° Northeast 517 595 37,000  Level Los Center
Tue 12:23:03 AM 36.8144 -112.4731 65° Northeast 516 594 37,000  Level Los Center
Tue 12:24:05 AM 36.8733 -112.3108 66° East 516 594 37,000  Level Los Center
Tue 12:25:06 AM 36.9328 -112.1475 65° Northeast 519 597 37,000  Level Los Center
Tue 12:26:07 AM 36.9911 -111.9850 66° East 517 595 37,000  Level Los Center
Tue 12:27:09 AM 37.0506 -111.8214 65° Northeast 519 597 37,000  Level Los Center
Tue 12:28:10 AM 37.1083 -111.6567 66° East 519 597 37,000  Level Los Center
Tue 12:28:54 AM 37.1558 -111.5256 66° East 519 597 37,000  Level Denver Center
Tue 12:29:56 AM 37.2119 -111.3631 67° East 513 590 37,000 49 Level Denver Center
Tue 12:30:57 AM 37.2678 -111.1986 67° East 514 592 37,100 492 Climbing Denver Center
Tue 12:31:58 AM 37.3253 -111.0350 66° East 514 592 38,000 934 Climbing Denver Center
Tue 12:32:59 AM 37.3817 -110.8747 66° East 506 582 39,000 488 Climbing Denver Center
Tue 12:34:01 AM 37.4483 -110.6811 67° East 505 581 39,000  Level Denver Center
Tue 12:35:14 AM 37.5031 -110.5194 67° East 508 585 39,000  Level Denver Center
Tue 12:36:15 AM 37.5639 -110.3406 67° East 499 574 39,000  Level Denver Center
Tue 12:37:16 AM 37.6242 -110.1608 67° East 498 573 39,000  Level Denver Center
Tue 12:38:18 AM 37.6753 -110.0053 67° East 502 578 39,000  Level Denver Center
Tue 12:39:19 AM 37.7361 -109.8247 67° East 500 575 39,000  Level Denver Center
Tue 12:40:20 AM 37.7878 -109.6697 67° East 500 575 39,000  Level Denver Center
Tue 12:41:21 AM 37.8400 -109.5158 67° East 497 572 39,000  Level Denver Center
Tue 12:42:22 AM 37.8983 -109.3336 68° East 500 575 39,000  Level Denver Center
Tue 12:43:23 AM 37.9492 -109.1789 67° East 497 572 39,000  Level Denver Center
Tue 12:44:24 AM 38.0000 -109.0247 67° East 496 571 39,000  Level Denver Center
Tue 12:45:37 AM 38.0583 -108.8433 68° East 496 571 39,000  Level Denver Center
Tue 12:46:39 AM 38.1211 -108.6444 68° East 504 580 39,000  Level Denver Center
Tue 12:47:40 AM 38.1706 -108.4919 68° East 494 568 39,000  Level Denver Center
Tue 12:48:53 AM 38.2272 -108.3125 68° East 491 565 39,000  Level Denver Center
Tue 12:49:54 AM 38.2847 -108.1306 68° East 495 570 39,000  Level Denver Center
Tue 12:50:55 AM 38.3411 -107.9511 68° East 492 566 39,000  Level Denver Center
Tue 12:51:56 AM 38.3883 -107.7972 69° East 488 562 39,000  Level Denver Center
Tue 12:52:57 AM 38.4367 -107.6433 68° East 490 564 39,000  Level Denver Center
Tue 12:53:58 AM 38.5061 -107.4733 62° Northeast 487 560 39,000  Level Denver Center
Tue 12:54:59 AM 38.5711 -107.3289 60° Northeast 490 564 39,000 -148 Level Denver Center
Tue 12:56:00 AM 38.6375 -107.1856 59° Northeast 492 566 38,700 -689 Descending Denver Center
Tue 12:57:01 AM 38.7167 -107.0119 60° Northeast 494 568 37,600 -984 Descending Denver Center
Tue 12:58:02 AM 38.7850 -106.8617 60° Northeast 491 565 36,700 -934 Descending Denver Center
Tue 12:59:03 AM 38.8531 -106.7092 60° Northeast 493 567 35,700 -942 Descending Denver Center
Tue 01:00:03 AM 38.9200 -106.5597 60° Northeast 484 557 34,800 -893 Descending Denver Center
Tue 01:01:04 AM 38.9850 -106.4161 60° Northeast 484 557 33,900 -984 Descending Denver Center
Tue 01:02:05 AM 39.0614 -106.2472 60° Northeast 488 562 32,800 -984 Descending Denver Center
Tue 01:03:06 AM 39.1208 -106.1078 61° Northeast 489 563 31,900 -1,377 Descending Denver Center
Tue 01:04:07 AM 39.1886 -105.9531 60° Northeast 495 570 30,000 -2,213 Descending Denver Center
Tue 01:05:08 AM 39.2567 -105.8011 60° Northeast 492 566 27,400 -2,508 Descending Denver Center
Tue 01:06:09 AM 39.3197 -105.6517 61° Northeast 481 554 24,900 -2,479 Descending Denver Center
Tue 01:07:09 AM 39.3842 -105.5056 60° Northeast 471 542 22,400 -2,479 Descending Denver Center
Tue 01:08:10 AM 39.4639 -105.3544 56° Northeast 442 509 19,900 -2,311 Descending Denver Center
Tue 01:09:11 AM 39.5286 -105.2275 57° Northeast 415 478 17,700 -1,525 Descending Denver Center
Tue 01:10:12 AM 39.5914 -105.1086 56° Northeast 398 458 16,800 -1,426 Descending Denver Center
Tue 01:11:13 AM 39.6569 -104.9817 56° Northeast 386 444 14,800 -1,736 Descending Denver Center
Tue 01:12:13 AM 39.7194 -104.8664 55° Northeast 392 451 13,300 -1,289 Descending Denver Center
Tue 01:13:14 AM 39.8181 -104.8400 12° North 372 428 12,200 -1,377 Descending Denver Center
Tue 01:14:15 AM 39.9139 -104.8375 North 339 390 10,500 -1,623 Descending Denver Center
Tue 01:15:16 AM 39.9942 -104.8342 North 280 322 8,900 -1,388 Descending Denver Center
Tue 01:16:16 AM 40.0281 -104.7808 50° Northeast 224 258 7,700 -942 Descending Denver Center
Tue 01:17:17 AM 39.9914 -104.7278 132° Southeast 191 220 7,000 -689 Descending Denver Center
Tue 01:18:18 AM 39.9517 -104.6969 149° Southeast 163 188 6,300 -689 Descending Denver Center
Tue 01:19:19 AM 39.9114 -104.6958 179° South 145 167 5,600 -496 Descending Denver Center
Tue 01:20:19 AM 39.8714 -104.6967 181° South 144 166 5,300 -300 Descending Denver Center
Tue 01:22:00 AM 39.8617 -104.6732 180° South  Level Estimated
Tue 01:29:00 AM 39.8617 -104.6732 180° South  Level Estimated
Tue 01:30:00 AM 39.8617 -104.6732 180° South  Level Estimated

Login

Don't have an account? Register now (free) for customized features, flight alerts, and more!